Time;durP1;ratioP1;P1;durP2;ratioP2;P2;SDS_P1;SDS_P2;PMS_P1;PMS_P2;Temp;Humidity;BMP_temperature;BMP_pressure;BME280_temperature;BME280_humidity;BME280_pressure;Samples;Min_cycle;Max_cycle;Signal;HPM_P1;HPM_P2
2024/02/23 00:01:26;;;;;;;6.07;0.82;;;5.90;99.90;;;;;;5045931;28;20123;-76
2024/02/23 00:03:52;;;;;;;5.93;0.82;;;6.00;99.90;;;;;;5065453;28;20559;-76
2024/02/23 00:06:18;;;;;;;8.73;1.00;;;6.00;99.90;;;;;;5067559;28;20037;-75
2024/02/23 00:08:43;;;;;;;6.82;1.00;;;6.10;99.90;;;;;;5066241;28;20162;-75
2024/02/23 00:11:09;;;;;;;8.25;1.02;;;6.10;99.90;;;;;;5064886;28;20079;-75
2024/02/23 00:13:35;;;;;;;4.40;0.50;;;6.10;99.90;;;;;;5066863;28;20029;-76
2024/02/23 00:16:00;;;;;;;6.72;0.70;;;6.10;99.90;;;;;;5049525;28;20109;-76
2024/02/23 00:18:26;;;;;;;15.25;1.33;;;6.10;99.90;;;;;;5060732;28;20439;-76
2024/02/23 00:20:52;;;;;;;8.60;0.90;;;6.20;99.90;;;;;;5049883;28;20036;-76
2024/02/23 00:23:19;;;;;;;3.88;0.55;;;6.20;99.90;;;;;;5066028;28;20090;-75
2024/02/23 00:25:45;;;;;;;11.93;1.25;;;6.20;99.90;;;;;;5049033;28;20489;-75
2024/02/23 00:28:10;;;;;;;15.98;1.63;;;6.20;99.90;;;;;;5064987;28;20123;-76
2024/02/23 00:30:36;;;;;;;4.55;0.80;;;6.10;99.90;;;;;;5067712;28;20024;-75
2024/02/23 00:33:01;;;;;;;3.35;0.68;;;6.20;99.90;;;;;;5068401;28;20028;-78
2024/02/23 00:35:27;;;;;;;6.30;1.75;;;6.10;99.90;;;;;;5042750;28;20067;-75
2024/02/23 00:37:52;;;;;;;7.82;1.38;;;6.20;99.90;;;;;;5063126;28;20028;-74
2024/02/23 00:40:18;;;;;;;7.47;0.55;;;6.20;99.90;;;;;;5044358;28;20564;-76
2024/02/23 00:42:43;;;;;;;6.68;0.85;;;6.30;99.90;;;;;;5066204;28;20048;-76
2024/02/23 00:45:09;;;;;;;9.32;1.63;;;6.30;99.90;;;;;;5067309;28;20044;-76
2024/02/23 00:47:35;;;;;;;7.70;1.65;;;6.30;99.90;;;;;;5065889;28;20123;-76
2024/02/23 00:50:02;;;;;;;9.68;1.40;;;6.40;99.90;;;;;;5047440;28;20041;-75
2024/02/23 00:52:27;;;;;;;5.50;0.82;;;6.40;99.90;;;;;;5064036;28;20571;-75
2024/02/23 00:54:53;;;;;;;10.45;1.05;;;6.40;99.90;;;;;;5062469;28;20029;-75
2024/02/23 00:57:25;;;;;;;3.88;0.55;;;6.40;99.90;;;;;;5061314;28;20577;-74
2024/02/23 00:59:51;;;;;;;6.13;0.60;;;6.30;99.90;;;;;;5042780;28;20045;-75
2024/02/23 01:02:16;;;;;;;8.35;0.38;;;6.30;99.90;;;;;;5046901;28;20082;-76
2024/02/23 01:04:42;;;;;;;2.60;0.50;;;6.20;99.90;;;;;;5049383;28;20091;-75
2024/02/23 01:07:07;;;;;;;3.25;0.38;;;6.00;99.90;;;;;;5046353;28;20033;-74
2024/02/23 01:09:33;;;;;;;5.28;0.75;;;5.90;99.90;;;;;;5042848;28;20417;-75
2024/02/23 01:11:59;;;;;;;2.38;0.40;;;5.90;99.90;;;;;;5045265;28;20029;-74
2024/02/23 01:14:25;;;;;;;1.52;0.50;;;5.80;99.90;;;;;;5035812;28;20041;-74
2024/02/23 01:16:50;;;;;;;10.52;0.82;;;5.70;99.90;;;;;;5038129;28;20053;-74
2024/02/23 01:19:16;;;;;;;7.78;1.35;;;5.70;99.90;;;;;;5046605;28;20110;-74
2024/02/23 01:21:42;;;;;;;2.05;0.50;;;5.60;99.90;;;;;;5045532;28;20040;-75
2024/02/23 01:24:07;;;;;;;11.27;0.88;;;5.60;99.90;;;;;;5043290;28;20418;-76
2024/02/23 01:26:33;;;;;;;7.20;1.33;;;5.60;99.90;;;;;;5045062;28;20040;-75
2024/02/23 01:28:58;;;;;;;5.55;0.75;;;5.70;99.90;;;;;;5053041;28;20432;-75
2024/02/23 01:31:24;;;;;;;7.88;0.60;;;5.60;99.90;;;;;;5044820;28;20041;-75
2024/02/23 01:33:50;;;;;;;6.68;0.98;;;5.60;99.90;;;;;;5040596;28;20394;-75
2024/02/23 01:36:16;;;;;;;6.97;1.15;;;5.60;99.90;;;;;;5040342;28;20067;-75
2024/02/23 01:38:42;;;;;;;6.30;0.47;;;5.60;99.90;;;;;;5043069;28;20548;-74
2024/02/23 01:41:08;;;;;;;12.57;1.67;;;5.60;99.90;;;;;;5037140;28;20129;-75
2024/02/23 01:43:34;;;;;;;7.63;0.90;;;5.60;99.90;;;;;;5033503;28;20112;-74
2024/02/23 01:45:59;;;;;;;9.20;1.77;;;5.70;99.90;;;;;;5042010;28;20045;-75
2024/02/23 01:48:26;;;;;;;11.93;1.05;;;5.80;99.90;;;;;;5038413;28;20030;-75
2024/02/23 01:50:53;;;;;;;11.30;1.15;;;5.80;99.90;;;;;;5042758;28;20040;-76
2024/02/23 01:53:19;;;;;;;3.53;0.80;;;5.80;99.90;;;;;;5039280;28;20037;-76
2024/02/23 01:55:47;;;;;;;7.53;1.33;;;5.80;99.90;;;;;;5046833;28;20036;-74
2024/02/23 01:58:12;;;;;;;3.15;0.85;;;5.80;99.90;;;;;;5036387;28;20029;-75
2024/02/23 02:00:38;;;;;;;6.15;0.70;;;5.80;99.90;;;;;;5041602;28;20033;-75
2024/02/23 02:03:04;;;;;;;9.98;0.93;;;5.90;99.90;;;;;;5038805;28;20055;-77
2024/02/23 02:05:30;;;;;;;6.65;0.80;;;5.90;99.90;;;;;;5040075;28;20571;-75
2024/02/23 02:07:59;;;;;;;6.20;1.05;;;5.90;99.90;;;;;;5048092;28;20041;-76
2024/02/23 02:10:25;;;;;;;5.97;0.88;;;5.80;99.90;;;;;;5040182;28;20030;-75
2024/02/23 02:12:51;;;;;;;5.15;0.57;;;5.80;99.90;;;;;;5044762;28;20091;-76
2024/02/23 02:15:17;;;;;;;12.13;0.70;;;5.70;99.90;;;;;;5039586;28;20078;-76
2024/02/23 02:17:42;;;;;;;3.97;0.50;;;5.70;99.90;;;;;;5040084;28;20093;-75
2024/02/23 02:20:12;;;;;;;10.50;0.68;;;5.70;99.90;;;;;;5037866;28;20045;-73
2024/02/23 02:22:37;;;;;;;5.07;0.95;;;5.70;99.90;;;;;;5043534;28;20033;-75
2024/02/23 02:25:04;;;;;;;5.88;0.80;;;5.60;99.90;;;;;;5046465;28;20032;-75
2024/02/23 02:27:29;;;;;;;9.80;0.85;;;5.60;99.90;;;;;;5045901;28;20025;-76
2024/02/23 02:29:55;;;;;;;8.23;0.80;;;5.50;99.90;;;;;;5041759;28;20048;-75
2024/02/23 02:32:21;;;;;;;9.30;1.85;;;5.60;99.90;;;;;;5039308;28;20506;-76
2024/02/23 02:34:46;;;;;;;7.43;1.02;;;5.60;99.90;;;;;;5042517;28;20391;-75
2024/02/23 02:37:12;;;;;;;5.65;1.17;;;5.70;99.90;;;;;;5039607;28;20082;-76
2024/02/23 02:39:37;;;;;;;12.50;1.38;;;5.60;99.90;;;;;;5046069;28;20449;-74
2024/02/23 02:42:03;;;;;;;6.18;0.95;;;5.70;99.90;;;;;;5043152;28;20075;-74
2024/02/23 02:44:30;;;;;;;11.50;1.23;;;5.70;99.90;;;;;;5036496;28;20120;-75
2024/02/23 02:46:59;;;;;;;7.95;0.60;;;5.60;99.90;;;;;;5038224;28;20040;-76
2024/02/23 02:49:24;;;;;;;4.88;0.60;;;5.60;99.90;;;;;;5030254;28;20029;-76
2024/02/23 02:51:50;;;;;;;11.25;1.33;;;5.50;99.90;;;;;;5040678;28;20508;-76
2024/02/23 02:54:16;;;;;;;7.45;0.60;;;5.40;99.90;;;;;;5033702;28;20034;-76
2024/02/23 02:56:43;;;;;;;4.43;0.70;;;5.50;99.90;;;;;;5032939;28;20667;-76
2024/02/23 02:59:10;;;;;;;8.40;0.70;;;5.40;99.90;;;;;;5039283;28;20025;-74
2024/02/23 03:01:35;;;;;;;7.05;1.60;;;5.40;99.90;;;;;;5044019;28;20394;-75
2024/02/23 03:04:01;;;;;;;9.57;0.90;;;5.40;99.90;;;;;;5045023;28;20041;-75
2024/02/23 03:06:26;;;;;;;5.20;0.90;;;5.30;99.90;;;;;;5045383;28;20044;-75
2024/02/23 03:08:52;;;;;;;3.20;0.50;;;5.30;99.90;;;;;;5044783;28;20618;-75
2024/02/23 03:11:17;;;;;;;4.00;0.80;;;5.30;99.90;;;;;;5043867;28;20062;-75
2024/02/23 03:13:43;;;;;;;8.02;2.08;;;5.30;99.90;;;;;;5043771;28;20066;-75
2024/02/23 03:16:18;;;;;;;12.45;1.52;;;5.40;99.90;;;;;;5045368;28;20064;-75
2024/02/23 03:18:44;;;;;;;3.10;0.60;;;5.40;99.90;;;;;;5044584;28;20029;-75
2024/02/23 03:21:10;;;;;;;4.78;0.45;;;5.40;99.90;;;;;;5043867;28;20081;-76
2024/02/23 03:23:36;;;;;;;8.23;0.57;;;5.30;99.90;;;;;;5044805;28;20053;-75
2024/02/23 03:26:02;;;;;;;10.93;1.00;;;5.30;99.90;;;;;;5043081;28;20094;-74
2024/02/23 03:28:27;;;;;;;9.23;0.93;;;5.20;99.90;;;;;;5043282;28;20044;-74
2024/02/23 03:30:53;;;;;;;3.30;1.15;;;5.20;99.90;;;;;;5042715;28;20029;-75
2024/02/23 03:33:19;;;;;;;3.80;1.08;;;5.20;99.90;;;;;;5045104;28;20064;-75
2024/02/23 03:35:44;;;;;;;4.85;0.52;;;5.20;99.90;;;;;;5042876;28;20134;-77
2024/02/23 03:38:10;;;;;;;4.25;0.77;;;5.20;99.90;;;;;;5045195;28;20036;-75
2024/02/23 03:40:35;;;;;;;13.95;1.63;;;5.20;99.90;;;;;;5040590;28;20029;-75
2024/02/23 03:43:02;;;;;;;8.70;1.08;;;5.20;99.90;;;;;;5043204;28;20391;-76
2024/02/23 03:45:27;;;;;;;7.47;1.58;;;5.20;99.90;;;;;;5042296;28;20056;-75
2024/02/23 03:47:53;;;;;;;2.10;0.65;;;5.10;99.90;;;;;;5042632;28;20498;-75
2024/02/23 03:50:19;;;;;;;7.55;0.90;;;5.10;99.90;;;;;;5043543;28;20073;-76
2024/02/23 03:52:45;;;;;;;16.05;2.25;;;5.10;99.90;;;;;;5042820;28;20048;-77
2024/02/23 03:55:10;;;;;;;10.02;1.20;;;5.10;99.90;;;;;;5036560;28;20045;-75
2024/02/23 03:57:37;;;;;;;5.30;0.98;;;5.10;99.90;;;;;;5042452;28;20056;-75
2024/02/23 04:00:02;;;;;;;4.60;0.80;;;5.00;99.90;;;;;;5044981;28;20512;-75
2024/02/23 04:02:29;;;;;;;7.20;0.90;;;5.00;99.90;;;;;;5042735;28;20076;-76
2024/02/23 04:04:54;;;;;;;4.72;0.52;;;4.90;99.90;;;;;;5044080;28;20033;-75
2024/02/23 04:07:20;;;;;;;2.60;0.43;;;4.90;99.90;;;;;;5044071;28;20041;-77
2024/02/23 04:09:51;;;;;;;11.02;1.85;;;4.90;99.90;;;;;;5043566;28;20037;-75
2024/02/23 04:12:20;;;;;;;6.30;1.13;;;4.90;99.90;;;;;;5045255;28;20028;-76
2024/02/23 04:14:46;;;;;;;6.85;1.40;;;4.90;99.90;;;;;;5038826;28;20094;-75
2024/02/23 04:17:12;;;;;;;9.10;0.82;;;4.90;99.90;;;;;;5045088;28;20033;-76
2024/02/23 04:19:38;;;;;;;5.72;1.02;;;4.80;99.90;;;;;;5044961;28;20047;-75
2024/02/23 04:22:10;;;;;;;6.60;0.77;;;4.80;99.90;;;;;;5042877;28;20025;-75
2024/02/23 04:24:38;;;;;;;4.10;1.05;;;4.90;99.90;;;;;;5044663;28;20060;-75
2024/02/23 04:27:04;;;;;;;4.35;0.47;;;4.80;99.90;;;;;;5039893;28;20033;-76
2024/02/23 04:29:30;;;;;;;6.10;0.60;;;4.80;99.90;;;;;;5037972;28;20049;-76
2024/02/23 04:31:55;;;;;;;6.30;0.50;;;4.80;99.90;;;;;;5035973;28;20102;-75
2024/02/23 04:34:21;;;;;;;9.38;0.65;;;4.90;99.90;;;;;;5041629;28;20127;-75
2024/02/23 04:36:46;;;;;;;10.38;1.48;;;4.80;99.90;;;;;;5043979;28;20108;-75
2024/02/23 04:39:12;;;;;;;8.90;0.73;;;4.80;99.90;;;;;;5043201;28;20037;-75
2024/02/23 04:41:37;;;;;;;5.20;0.73;;;4.90;99.90;;;;;;5036492;28;20033;-75
2024/02/23 04:44:03;;;;;;;6.97;0.95;;;4.90;99.90;;;;;;5052888;28;20052;-75
2024/02/23 04:46:30;;;;;;;5.00;1.85;;;5.00;99.90;;;;;;5060751;28;20047;-76
2024/02/23 04:48:56;;;;;;;5.43;0.85;;;5.00;99.90;;;;;;5062246;28;20042;-76
2024/02/23 04:51:23;;;;;;;6.50;0.80;;;5.10;99.90;;;;;;5044978;28;20044;-76
2024/02/23 04:53:48;;;;;;;13.20;2.03;;;5.10;99.90;;;;;;5065875;28;20032;-75
2024/02/23 04:56:14;;;;;;;9.85;1.17;;;5.20;99.90;;;;;;5044398;28;20037;-76
2024/02/23 04:58:41;;;;;;;10.38;1.08;;;5.20;99.90;;;;;;5039565;28;20025;-74
2024/02/23 05:01:06;;;;;;;6.50;1.50;;;5.30;99.90;;;;;;5040271;28;20501;-78
2024/02/23 05:03:32;;;;;;;5.90;1.23;;;5.30;99.90;;;;;;5059889;28;20087;-74
2024/02/23 05:05:58;;;;;;;9.68;0.90;;;5.30;99.90;;;;;;5047317;28;20120;-75
2024/02/23 05:08:24;;;;;;;3.13;0.82;;;5.30;99.90;;;;;;5049173;28;20041;-75
2024/02/23 05:10:50;;;;;;;5.70;1.15;;;5.30;99.90;;;;;;5047964;28;20131;-76
2024/02/23 05:13:16;;;;;;;5.65;0.90;;;5.30;99.90;;;;;;5071692;28;20055;-77
2024/02/23 05:15:42;;;;;;;4.70;1.30;;;5.30;99.90;;;;;;5093876;28;20032;-76
2024/02/23 05:18:07;;;;;;;4.50;0.70;;;5.30;99.90;;;;;;5077311;28;20033;-77
2024/02/23 05:20:33;;;;;;;9.68;1.42;;;5.30;99.90;;;;;;5070414;28;20577;-75
2024/02/23 05:22:59;;;;;;;5.15;1.55;;;5.40;99.90;;;;;;5068068;28;20040;-75
2024/02/23 05:25:27;;;;;;;14.95;1.70;;;5.40;99.90;;;;;;5047053;28;20551;-75
2024/02/23 05:27:53;;;;;;;11.35;2.85;;;5.40;99.90;;;;;;5064574;28;20112;-75
2024/02/23 05:30:19;;;;;;;4.05;0.70;;;5.30;99.90;;;;;;5067083;28;20127;-76
2024/02/23 05:32:44;;;;;;;3.63;0.85;;;5.30;99.90;;;;;;5061573;28;20923;-76
2024/02/23 05:35:10;;;;;;;7.53;1.20;;;5.40;99.90;;;;;;5044290;28;20044;-76
2024/02/23 05:37:36;;;;;;;3.92;1.52;;;5.40;99.90;;;;;;5041812;28;20048;-75
2024/02/23 05:40:06;;;;;;;7.95;0.98;;;5.40;99.90;;;;;;5065330;28;20060;-76
2024/02/23 05:42:32;;;;;;;3.95;0.88;;;5.40;99.90;;;;;;5056131;28;20036;-76
2024/02/23 05:44:58;;;;;;;6.03;1.27;;;5.50;99.90;;;;;;5041800;28;20497;-76
2024/02/23 05:47:23;;;;;;;3.30;1.20;;;5.50;99.90;;;;;;5040781;28;20040;-77
2024/02/23 05:49:50;;;;;;;4.32;1.50;;;5.50;99.90;;;;;;5060015;28;20554;-77
2024/02/23 05:52:16;;;;;;;5.95;1.30;;;5.50;99.90;;;;;;5059825;28;20112;-76
2024/02/23 05:54:41;;;;;;;2.95;1.25;;;5.50;99.90;;;;;;5058427;28;20108;-76
2024/02/23 05:57:07;;;;;;;5.30;1.60;;;5.60;99.90;;;;;;5060545;28;20036;-77
2024/02/23 05:59:32;;;;;;;4.15;1.10;;;5.70;99.90;;;;;;5056509;28;20033;-76
2024/02/23 06:01:58;;;;;;;3.15;1.33;;;5.70;99.90;;;;;;5059721;28;20033;-76
2024/02/23 06:04:24;;;;;;;4.10;1.30;;;5.70;99.90;;;;;;5057690;28;20483;-78
2024/02/23 06:06:50;;;;;;;14.65;2.60;;;5.70;99.90;;;;;;5058294;28;20043;-76
2024/02/23 06:09:15;;;;;;;9.45;2.13;;;5.80;99.90;;;;;;5044349;28;20025;-74
2024/02/23 06:11:41;;;;;;;6.78;1.27;;;5.70;99.90;;;;;;5040945;28;20108;-76
2024/02/23 06:14:07;;;;;;;6.03;0.85;;;5.70;99.90;;;;;;5041656;28;20029;-76
2024/02/23 06:16:33;;;;;;;2.92;1.02;;;5.70;99.90;;;;;;5059511;28;20062;-76
2024/02/23 06:18:59;;;;;;;3.15;1.23;;;5.70;99.90;;;;;;5056962;28;20086;-76
2024/02/23 06:21:25;;;;;;;3.47;1.10;;;5.70;99.90;;;;;;5059129;28;20420;-75
2024/02/23 06:23:50;;;;;;;4.03;0.93;;;5.70;99.90;;;;;;5062451;28;20035;-76
2024/02/23 06:26:16;;;;;;;10.57;0.98;;;5.80;99.90;;;;;;5048347;28;20695;-76
2024/02/23 06:28:42;;;;;;;5.47;0.63;;;5.80;99.90;;;;;;5066437;28;20040;-75
2024/02/23 06:31:09;;;;;;;6.13;0.95;;;5.80;99.90;;;;;;5066489;28;20036;-75
2024/02/23 06:33:35;;;;;;;6.93;2.13;;;5.80;99.90;;;;;;5049061;28;20044;-76
2024/02/23 06:36:00;;;;;;;3.40;1.15;;;5.80;99.90;;;;;;5059103;28;20029;-76
2024/02/23 06:38:27;;;;;;;11.32;2.42;;;5.70;99.90;;;;;;5060676;28;20036;-76
2024/02/23 06:40:52;;;;;;;3.67;0.80;;;5.80;99.90;;;;;;5045894;28;20043;-77
2024/02/23 06:43:18;;;;;;;4.00;0.90;;;5.80;99.90;;;;;;5062266;28;20036;-76
2024/02/23 06:45:44;;;;;;;5.10;0.70;;;5.80;99.90;;;;;;5065519;28;20044;-76
2024/02/23 06:48:10;;;;;;;3.30;0.73;;;5.80;99.90;;;;;;5048066;28;20401;-76
2024/02/23 06:50:35;;;;;;;2.67;0.85;;;5.80;99.90;;;;;;5047501;28;20814;-76
2024/02/23 06:53:02;;;;;;;4.25;1.02;;;5.80;99.90;;;;;;5043187;28;20037;-76
2024/02/23 06:55:28;;;;;;;8.40;0.75;;;5.80;99.90;;;;;;5061644;28;20036;-76
2024/02/23 06:57:54;;;;;;;2.95;0.95;;;5.80;99.90;;;;;;5063004;28;20037;-77
2024/02/23 07:00:21;;;;;;;4.90;1.95;;;5.80;99.90;;;;;;5047178;28;20405;-75
2024/02/23 07:02:47;;;;;;;6.60;1.05;;;5.80;99.90;;;;;;5061905;28;20036;-75
2024/02/23 07:05:14;;;;;;;3.00;0.70;;;5.80;99.90;;;;;;5060829;28;20106;-75
2024/02/23 07:07:40;;;;;;;0.80;0.43;;;5.90;99.90;;;;;;5045760;28;20025;-74
2024/02/23 07:10:06;;;;;;;8.30;1.25;;;5.90;99.90;;;;;;5063877;28;20112;-76
2024/02/23 07:12:32;;;;;;;7.45;0.85;;;6.00;99.90;;;;;;5062850;28;20025;-75
2024/02/23 07:14:58;;;;;;;2.30;0.50;;;6.10;99.90;;;;;;5044628;28;20123;-75
2024/02/23 07:17:24;;;;;;;2.90;0.60;;;6.20;99.90;;;;;;5059868;28;20431;-75
2024/02/23 07:19:51;;;;;;;2.25;0.60;;;6.20;99.90;;;;;;5041515;28;20071;-74
2024/02/23 07:22:20;;;;;;;5.68;0.75;;;6.20;99.90;;;;;;5062912;28;20032;-76
2024/02/23 07:24:46;;;;;;;3.58;1.02;;;6.20;99.90;;;;;;5061474;28;20025;-76
2024/02/23 07:27:11;;;;;;;4.70;0.93;;;6.20;99.90;;;;;;5058659;28;20051;-75
2024/02/23 07:29:37;;;;;;;3.15;0.40;;;6.30;99.90;;;;;;5047831;28;20044;-75
2024/02/23 07:32:03;;;;;;;5.30;0.77;;;6.30;99.90;;;;;;5064544;28;20047;-76
2024/02/23 07:34:30;;;;;;;1.85;0.25;;;6.20;99.90;;;;;;5045806;28;20036;-75
2024/02/23 07:36:55;;;;;;;4.57;0.55;;;6.30;99.90;;;;;;5064141;28;20028;-76
2024/02/23 07:39:21;;;;;;;3.22;0.68;;;6.20;99.90;;;;;;5057376;28;20440;-75
2024/02/23 07:41:47;;;;;;;4.90;1.27;;;6.30;99.90;;;;;;5044995;28;20059;-76
2024/02/23 07:44:13;;;;;;;11.65;1.15;;;6.30;99.90;;;;;;5060042;28;20091;-76
2024/02/23 07:46:38;;;;;;;3.03;0.68;;;6.30;99.90;;;;;;5061367;28;20123;-74
2024/02/23 07:49:05;;;;;;;4.65;2.05;;;6.30;99.90;;;;;;5045935;28;20438;-74
2024/02/23 07:51:31;;;;;;;16.80;0.85;;;6.30;99.90;;;;;;5043354;28;20040;-75
2024/02/23 07:53:57;;;;;;;1.15;0.50;;;6.20;99.90;;;;;;5060680;28;20029;-75
2024/02/23 07:56:22;;;;;;;1.98;0.40;;;6.10;99.90;;;;;;5063249;28;20036;-75
2024/02/23 07:58:48;;;;;;;9.45;1.00;;;6.10;99.90;;;;;;5059812;28;20839;-79
2024/02/23 08:01:16;;;;;;;5.90;0.80;;;6.10;99.90;;;;;;5057620;28;20049;-74
2024/02/23 08:03:42;;;;;;;8.18;1.00;;;6.00;99.90;;;;;;5059063;28;20090;-75
2024/02/23 08:06:07;;;;;;;5.38;1.50;;;6.00;99.90;;;;;;5043177;28;20060;-75
2024/02/23 08:08:34;;;;;;;4.45;0.40;;;6.00;99.90;;;;;;5059133;28;20490;-75
2024/02/23 08:11:03;;;;;;;6.13;1.10;;;5.90;99.90;;;;;;5042728;28;20033;-76
2024/02/23 08:13:29;;;;;;;5.72;0.90;;;5.90;99.90;;;;;;5058338;28;20474;-75
2024/02/23 08:15:55;;;;;;;9.73;2.10;;;5.80;99.90;;;;;;5061306;28;20039;-75
2024/02/23 08:18:22;;;;;;;6.60;1.02;;;5.70;99.90;;;;;;5048622;28;20076;-75
2024/02/23 08:20:48;;;;;;;5.78;0.90;;;5.70;99.90;;;;;;5060137;28;20036;-76
2024/02/23 08:23:13;;;;;;;5.60;0.98;;;5.70;99.90;;;;;;5059106;28;20102;-75
2024/02/23 08:25:39;;;;;;;5.60;1.40;;;5.60;99.90;;;;;;5067459;28;20037;-76
2024/02/23 08:28:05;;;;;;;3.55;0.63;;;5.60;99.90;;;;;;5069277;28;20071;-75
2024/02/23 08:30:30;;;;;;;6.90;0.85;;;5.60;99.90;;;;;;5068121;28;20151;-75
2024/02/23 08:32:56;;;;;;;4.72;1.00;;;5.60;99.90;;;;;;5046775;28;20485;-75
2024/02/23 08:35:21;;;;;;;11.00;1.63;;;5.60;99.90;;;;;;5064084;28;20028;-75
2024/02/23 08:37:47;;;;;;;9.90;1.08;;;5.60;99.90;;;;;;5049599;28;20029;-77
2024/02/23 08:40:12;;;;;;;6.47;1.52;;;5.60;99.90;;;;;;5066568;28;20802;-75
2024/02/23 08:42:38;;;;;;;3.78;0.80;;;5.60;99.90;;;;;;5064010;28;20489;-75
2024/02/23 08:45:04;;;;;;;6.03;1.63;;;5.60;99.90;;;;;;5050251;28;20485;-75
2024/02/23 08:47:33;;;;;;;18.10;1.13;;;5.60;99.90;;;;;;5067070;28;20033;-76
2024/02/23 08:49:59;;;;;;;6.40;1.25;;;5.50;99.90;;;;;;5058722;28;20025;-76
2024/02/23 08:52:25;;;;;;;14.00;1.63;;;5.60;99.90;;;;;;5055745;28;20477;-75
2024/02/23 08:54:51;;;;;;;4.90;0.93;;;5.60;99.90;;;;;;5073133;28;20033;-76
2024/02/23 08:57:19;;;;;;;8.27;0.73;;;5.60;99.90;;;;;;5069246;28;20025;-75
2024/02/23 08:59:45;;;;;;;13.05;1.00;;;5.70;99.90;;;;;;5072367;28;20798;-76
2024/02/23 09:02:11;;;;;;;4.57;0.50;;;5.70;99.90;;;;;;5080966;28;20028;-74
2024/02/23 09:04:36;;;;;;;5.53;0.70;;;5.70;99.90;;;;;;5071301;28;20025;-76
2024/02/23 09:07:02;;;;;;;4.45;1.05;;;5.80;99.90;;;;;;5048607;28;20667;-76
2024/02/23 09:09:27;;;;;;;3.78;0.63;;;5.80;99.90;;;;;;5069449;28;20498;-75
2024/02/23 09:11:53;;;;;;;2.70;0.43;;;5.70;99.90;;;;;;5051744;28;20120;-75
2024/02/23 09:14:19;;;;;;;4.82;0.70;;;5.70;99.90;;;;;;5047826;28;20043;-77
2024/02/23 09:16:46;;;;;;;4.78;0.75;;;5.70;99.90;;;;;;5066245;28;20555;-74
2024/02/23 09:19:12;;;;;;;4.78;1.08;;;5.80;99.90;;;;;;5062045;28;20043;-75
2024/02/23 09:21:37;;;;;;;6.38;1.45;;;5.70;99.90;;;;;;5065107;28;20045;-76
2024/02/23 09:24:04;;;;;;;4.57;0.57;;;5.80;99.90;;;;;;5047290;28;20056;-75
2024/02/23 09:26:29;;;;;;;8.20;0.60;;;5.80;99.90;;;;;;5069422;28;20044;-75
2024/02/23 09:28:55;;;;;;;3.70;0.52;;;5.80;99.90;;;;;;5064423;28;20029;-76
2024/02/23 09:31:20;;;;;;;3.15;0.80;;;5.90;99.90;;;;;;5065251;28;20040;-75
2024/02/23 09:33:46;;;;;;;14.20;1.65;;;5.90;99.90;;;;;;5069096;28;20378;-75
2024/02/23 09:36:12;;;;;;;9.73;1.55;;;5.90;99.90;;;;;;5065002;28;20032;-75
2024/02/23 09:38:37;;;;;;;3.88;1.27;;;6.00;99.90;;;;;;5066411;28;20036;-75
2024/02/23 09:41:04;;;;;;;2.42;0.80;;;6.10;99.90;;;;;;5046640;28;20048;-78
2024/02/23 09:43:32;;;;;;;3.42;0.75;;;6.10;99.90;;;;;;5060754;28;20032;-75
2024/02/23 09:45:58;;;;;;;1.42;0.50;;;6.20;99.90;;;;;;5038626;28;20043;-75
2024/02/23 09:48:24;;;;;;;4.90;0.50;;;6.40;99.90;;;;;;5041593;28;20037;-75
2024/02/23 09:50:51;;;;;;;2.20;0.45;;;6.60;99.90;;;;;;5069118;28;20040;-75
2024/02/23 09:53:19;;;;;;;5.72;0.57;;;6.70;99.90;;;;;;5039814;28;20094;-75
2024/02/23 09:55:45;;;;;;;3.85;0.60;;;6.80;99.90;;;;;;5064494;28;20421;-75
2024/02/23 09:58:12;;;;;;;7.18;1.50;;;7.00;99.90;;;;;;5062518;28;20021;-75
2024/02/23 10:00:38;;;;;;;5.00;0.65;;;7.10;99.90;;;;;;5058114;28;20359;-75
2024/02/23 10:03:05;;;;;;;7.10;0.80;;;7.10;99.90;;;;;;5068332;28;20044;-74
2024/02/23 10:05:34;;;;;;;4.10;1.17;;;7.10;99.90;;;;;;5061830;28;20494;-74
2024/02/23 10:07:59;;;;;;;3.05;0.68;;;7.00;99.90;;;;;;5065651;28;20508;-75
2024/02/23 10:10:31;;;;;;;2.58;0.50;;;7.00;99.90;;;;;;5045829;28;20028;-76
2024/02/23 10:12:57;;;;;;;4.65;0.82;;;7.00;99.90;;;;;;5049600;28;20062;-76
2024/02/23 10:15:23;;;;;;;4.57;0.85;;;6.90;99.90;;;;;;5063763;28;20040;-76
2024/02/23 10:17:48;;;;;;;4.45;0.60;;;6.90;99.90;;;;;;5061224;28;20028;-76
2024/02/23 10:20:14;;;;;;;6.00;0.63;;;6.90;99.90;;;;;;5048114;28;20037;-75
2024/02/23 10:22:39;;;;;;;3.60;1.00;;;6.90;99.90;;;;;;5044847;28;20033;-75
2024/02/23 10:25:05;;;;;;;5.32;0.73;;;6.90;99.90;;;;;;5064061;28;20106;-75
2024/02/23 10:27:31;;;;;;;7.35;0.82;;;6.90;99.90;;;;;;5065360;28;20094;-75
2024/02/23 10:29:56;;;;;;;4.90;1.10;;;7.00;99.90;;;;;;5061480;28;20056;-76
2024/02/23 10:32:23;;;;;;;3.97;0.50;;;6.90;99.90;;;;;;5047908;28;20580;-77
2024/02/23 10:34:50;;;;;;;4.30;0.60;;;7.00;99.90;;;;;;5043440;28;20068;-76
2024/02/23 10:37:16;;;;;;;6.32;0.80;;;7.10;99.90;;;;;;5026709;28;20029;-76
2024/02/23 10:39:42;;;;;;;5.13;0.70;;;7.10;99.90;;;;;;5042291;28;20036;-76
2024/02/23 10:42:09;;;;;;;3.25;0.85;;;7.20;99.90;;;;;;5033013;28;20037;-76
2024/02/23 10:44:37;;;;;;;7.18;0.88;;;7.20;99.90;;;;;;5026518;28;20029;-76
2024/02/23 10:47:04;;;;;;;2.15;0.65;;;7.40;99.90;;;;;;5017654;28;20038;-75
2024/02/23 10:49:30;;;;;;;2.60;0.70;;;7.40;99.90;;;;;;5049401;28;20823;-77
2024/02/23 10:51:56;;;;;;;2.90;1.25;;;7.40;99.90;;;;;;5037239;28;20405;-75
2024/02/23 10:54:22;;;;;;;2.53;0.73;;;7.50;99.90;;;;;;5040594;28;21621;-77
2024/02/23 10:56:50;;;;;;;3.13;0.90;;;7.50;99.90;;;;;;5015800;28;20048;-77
2024/02/23 10:59:18;;;;;;;5.60;1.45;;;7.50;99.90;;;;;;5046185;28;20510;-76
2024/02/23 11:01:49;;;;;;;5.40;0.85;;;7.50;99.90;;;;;;5044353;28;21503;-76
2024/02/23 11:04:19;;;;;;;14.93;1.67;;;7.60;99.90;;;;;;5043500;28;20607;-76
2024/02/23 11:07:04;;;;;;;5.00;1.10;;;7.70;99.90;;;;;;5045293;28;20041;-77
2024/02/23 11:09:32;;;;;;;5.80;1.05;;;7.70;99.90;;;;;;5040257;28;21108;-74
2024/02/23 11:11:58;;;;;;;5.28;0.60;;;7.90;99.90;;;;;;5044434;28;20048;-77
2024/02/23 11:14:36;;;;;;;3.40;0.50;;;8.00;99.90;;;;;;5034170;28;20155;-76
2024/02/23 11:17:03;;;;;;;5.80;0.93;;;8.10;99.90;;;;;;5043736;28;20029;-75
2024/02/23 11:19:39;;;;;;;2.22;0.93;;;8.30;99.90;;;;;;5044318;28;20025;-75
2024/02/23 11:22:05;;;;;;;2.92;0.90;;;8.40;99.90;;;;;;5042330;28;20029;-76
2024/02/23 11:24:31;;;;;;;2.25;0.70;;;8.30;99.90;;;;;;5040958;28;20024;-76
2024/02/23 11:27:08;;;;;;;2.92;0.57;;;8.30;99.90;;;;;;5041521;28;20029;-76
2024/02/23 11:29:34;;;;;;;2.97;0.60;;;8.10;99.90;;;;;;5040331;28;20161;-75
2024/02/23 11:32:03;;;;;;;4.45;0.60;;;8.00;99.90;;;;;;5039052;28;20036;-75
2024/02/23 11:34:29;;;;;;;3.25;0.65;;;8.10;99.90;;;;;;5042441;28;20036;-76
2024/02/23 11:36:56;;;;;;;4.85;0.60;;;8.00;99.90;;;;;;5042109;28;20044;-76
2024/02/23 11:39:22;;;;;;;1.63;0.60;;;8.00;99.90;;;;;;5039024;28;20091;-75
2024/02/23 11:41:51;;;;;;;6.35;0.85;;;8.10;99.90;;;;;;5042507;28;20033;-75
2024/02/23 11:44:17;;;;;;;4.72;0.55;;;8.20;99.90;;;;;;5042193;28;20505;-78
2024/02/23 11:46:45;;;;;;;2.90;0.80;;;8.40;99.90;;;;;;5042352;28;20033;-75
2024/02/23 11:49:10;;;;;;;2.92;0.32;;;8.50;99.90;;;;;;5035429;28;20486;-75
2024/02/23 11:51:36;;;;;;;2.75;0.60;;;8.50;99.90;;;;;;5041884;28;20087;-74
2024/02/23 11:54:02;;;;;;;2.47;0.70;;;8.50;99.90;;;;;;5046390;28;20036;-74
2024/02/23 11:56:29;;;;;;;6.82;0.57;;;8.50;99.90;;;;;;5052224;28;20029;-75
2024/02/23 11:58:55;;;;;;;4.00;0.82;;;8.40;99.90;;;;;;5045318;28;20029;-74
2024/02/23 12:01:21;;;;;;;1.08;0.35;;;8.30;99.90;;;;;;5043258;28;20072;-74
2024/02/23 12:03:47;;;;;;;2.75;0.90;;;8.30;99.90;;;;;;5048553;28;20073;-74
2024/02/23 12:06:15;;;;;;;2.95;0.98;;;8.30;99.90;;;;;;5042299;28;20549;-75
2024/02/23 12:08:41;;;;;;;2.90;0.98;;;8.40;99.90;;;;;;5042719;28;20069;-75
2024/02/23 12:11:08;;;;;;;3.60;0.70;;;8.40;99.90;;;;;;5043909;28;20052;-74
2024/02/23 12:13:35;;;;;;;2.35;0.50;;;8.40;99.90;;;;;;5028205;28;20068;-74
2024/02/23 12:16:02;;;;;;;2.30;0.70;;;8.40;99.90;;;;;;5044437;28;20044;-74
2024/02/23 12:18:29;;;;;;;4.50;1.50;;;8.40;99.90;;;;;;5044556;28;20548;-75
2024/02/23 12:21:00;;;;;;;2.67;0.60;;;8.40;99.90;;;;;;5044251;28;20041;-75
2024/02/23 12:23:25;;;;;;;;;;;8.50;99.90;;;;;;5048772;28;20029;-76
2024/02/23 12:25:59;;;;;;;3.97;0.60;;;8.60;99.90;;;;;;5041338;28;20065;-74
2024/02/23 12:28:24;;;;;;;4.05;0.63;;;8.60;99.90;;;;;;5048222;28;20040;-75
2024/02/23 12:31:03;;;;;;;8.02;0.45;;;8.60;99.90;;;;;;5052462;28;20039;-76
2024/02/23 12:33:37;;;;;;;4.50;1.10;;;8.50;99.90;;;;;;5069638;28;20392;-76
2024/02/23 12:36:04;;;;;;;5.60;1.00;;;8.70;99.90;;;;;;5064764;28;20032;-75
2024/02/23 12:38:29;;;;;;;1.58;0.40;;;8.70;99.90;;;;;;5068393;28;20029;-75
2024/02/23 12:40:56;;;;;;;3.65;0.60;;;8.70;99.90;;;;;;5070127;28;20045;-75
2024/02/23 12:43:24;;;;;;;2.30;0.40;;;8.80;99.90;;;;;;5067270;28;20032;-75
2024/02/23 12:45:51;;;;;;;3.78;0.90;;;9.00;99.90;;;;;;5036309;28;20048;-75
2024/02/23 12:48:16;;;;;;;7.70;0.73;;;8.90;99.90;;;;;;5048626;28;20057;-74
2024/02/23 12:50:44;;;;;;;0.85;0.32;;;8.90;99.90;;;;;;5042867;28;20444;-74